createdAt,value
2023-04-15T00:01:13.256Z,8.77
2023-04-15T00:03:41.197Z,9.82
2023-04-15T00:06:08.546Z,8.73
2023-04-15T00:08:35.722Z,7.50
2023-04-15T00:11:05.877Z,7.68
2023-04-15T00:13:34.092Z,10.50
2023-04-15T00:16:01.673Z,9.80
2023-04-15T00:18:29.926Z,11.23
2023-04-15T00:20:57.573Z,10.38
2023-04-15T00:23:25.069Z,11.27
2023-04-15T00:25:52.461Z,11.73
2023-04-15T00:28:19.809Z,10.95
2023-04-15T00:30:47.330Z,11.48
2023-04-15T00:33:16.375Z,10.65
2023-04-15T00:35:43.599Z,11.93
2023-04-15T00:38:11.518Z,12.77
2023-04-15T00:40:38.997Z,11.98
2023-04-15T00:43:07.068Z,12.20
2023-04-15T00:45:34.275Z,12.38
2023-04-15T00:48:01.907Z,14.07
2023-04-15T00:50:29.196Z,14.48
2023-04-15T00:52:56.828Z,16.40
2023-04-15T00:55:24.020Z,15.40
2023-04-15T00:57:52.546Z,13.27
2023-04-15T01:00:21.155Z,15.00
2023-04-15T01:02:49.168Z,15.13
2023-04-15T01:05:18.532Z,15.10
2023-04-15T01:07:47.158Z,15.38
2023-04-15T01:10:14.566Z,13.70
2023-04-15T01:12:42.443Z,14.10
2023-04-15T01:15:11.031Z,14.35
2023-04-15T01:17:39.797Z,13.63
2023-04-15T01:20:10.131Z,15.50
2023-04-15T01:22:38.305Z,14.35
2023-04-15T01:25:13.155Z,14.27
2023-04-15T01:27:42.492Z,14.73
2023-04-15T01:30:10.512Z,16.77
2023-04-15T01:32:38.521Z,14.95
2023-04-15T01:35:06.398Z,15.93
2023-04-15T01:37:34.162Z,15.45
2023-04-15T01:40:01.354Z,17.40
2023-04-15T01:42:28.689Z,14.02
2023-04-15T01:44:55.917Z,13.57
2023-04-15T01:47:23.189Z,14.63
2023-04-15T01:49:50.416Z,15.35
2023-04-15T01:52:17.641Z,15.05
2023-04-15T01:54:44.998Z,14.02
2023-04-15T01:57:12.289Z,17.50
2023-04-15T01:59:39.422Z,17.40
2023-04-15T02:02:06.924Z,18.85
2023-04-15T02:04:34.298Z,17.35
2023-04-15T02:07:01.730Z,18.52
2023-04-15T02:09:29.230Z,17.73
2023-04-15T02:11:56.717Z,17.02
2023-04-15T02:14:23.934Z,17.63
2023-04-15T02:16:51.509Z,21.30
2023-04-15T02:19:18.876Z,21.55
2023-04-15T02:21:46.271Z,17.95
2023-04-15T02:24:13.456Z,18.77
2023-04-15T02:26:40.637Z,17.10
2023-04-15T02:29:07.870Z,20.10
2023-04-15T02:31:40.350Z,22.88
2023-04-15T02:34:08.205Z,22.25
2023-04-15T02:36:35.404Z,21.38
2023-04-15T02:39:04.309Z,21.73
2023-04-15T02:41:31.628Z,19.35
2023-04-15T02:43:58.918Z,17.98
2023-04-15T02:46:27.337Z,20.60
2023-04-15T02:48:54.693Z,21.75
2023-04-15T02:51:22.821Z,20.85
2023-04-15T02:53:50.702Z,22.00
2023-04-15T02:56:19.360Z,21.67
2023-04-15T02:58:46.703Z,23.08
2023-04-15T03:01:14.538Z,22.45
2023-04-15T03:03:42.019Z,22.95
2023-04-15T03:06:09.448Z,21.38
2023-04-15T03:08:37.269Z,22.65
2023-04-15T03:11:05.069Z,25.50
2023-04-15T03:13:32.230Z,22.60
2023-04-15T03:15:59.476Z,23.73
2023-04-15T03:18:26.691Z,24.98
2023-04-15T03:20:53.836Z,24.20
2023-04-15T03:23:21.313Z,23.85
2023-04-15T03:25:48.555Z,23.58
2023-04-15T03:28:15.787Z,22.83
2023-04-15T03:30:43.048Z,28.27
2023-04-15T03:33:10.272Z,27.40
2023-04-15T03:35:38.040Z,26.15
2023-04-15T03:38:05.196Z,30.33
2023-04-15T03:40:32.349Z,27.52
2023-04-15T03:42:59.499Z,29.48
2023-04-15T03:45:26.667Z,27.98
2023-04-15T03:47:53.831Z,28.45
2023-04-15T03:50:21.162Z,28.38
2023-04-15T03:52:50.743Z,27.73
2023-04-15T03:55:18.459Z,28.83
2023-04-15T03:57:46.443Z,26.73
2023-04-15T04:00:13.804Z,26.15
2023-04-15T04:02:41.395Z,25.95
2023-04-15T04:05:09.277Z,28.52
2023-04-15T04:07:36.518Z,29.25
2023-04-15T04:10:03.978Z,27.90
2023-04-15T04:12:31.170Z,26.17
2023-04-15T04:14:58.328Z,24.88
2023-04-15T04:17:25.534Z,26.48
2023-04-15T04:19:52.679Z,26.40
2023-04-15T04:22:24.231Z,24.85
2023-04-15T04:24:51.413Z,23.67
2023-04-15T04:27:18.543Z,22.85
2023-04-15T04:29:47.739Z,24.67
2023-04-15T04:32:15.096Z,23.13
2023-04-15T04:34:42.311Z,24.55
2023-04-15T04:37:09.445Z,22.77
2023-04-15T04:39:36.805Z,21.67
2023-04-15T04:42:04.058Z,20.88
2023-04-15T04:44:31.218Z,20.73
2023-04-15T04:46:58.390Z,20.77
2023-04-15T04:49:25.637Z,21.05
2023-04-15T04:51:53.261Z,17.13
2023-04-15T04:54:21.255Z,16.40
2023-04-15T04:56:48.384Z,14.98
2023-04-15T04:59:15.572Z,15.32
2023-04-15T05:01:42.947Z,15.70
2023-04-15T05:04:10.419Z,15.63
2023-04-15T05:06:37.633Z,17.80
2023-04-15T05:09:04.900Z,15.50
2023-04-15T05:11:32.141Z,14.88
2023-04-15T05:14:01.640Z,16.80
2023-04-15T05:16:28.837Z,17.05
2023-04-15T05:18:56.049Z,14.10
2023-04-15T05:21:23.605Z,13.73
2023-04-15T05:23:50.755Z,12.73
2023-04-15T05:26:17.916Z,12.77
2023-04-15T05:28:45.101Z,12.23
2023-04-15T05:31:12.251Z,12.05
2023-04-15T05:33:40.483Z,11.65
2023-04-15T05:36:08.119Z,10.43
2023-04-15T05:38:35.320Z,10.80
2023-04-15T05:41:02.576Z,9.45
2023-04-15T05:43:30.618Z,10.32
2023-04-15T05:45:57.902Z,9.45
2023-04-15T05:48:25.102Z,8.13
2023-04-15T05:50:52.278Z,9.30
2023-04-15T05:53:19.533Z,9.10
2023-04-15T05:55:46.773Z,7.90
2023-04-15T05:58:13.948Z,10.27
2023-04-15T06:00:41.199Z,9.20
2023-04-15T06:03:08.480Z,8.50
2023-04-15T06:05:35.686Z,8.73
2023-04-15T06:08:03.017Z,8.38
2023-04-15T06:10:30.836Z,8.75
2023-04-15T06:12:58.057Z,8.20
2023-04-15T06:15:25.173Z,7.38
2023-04-15T06:17:52.385Z,8.88
2023-04-15T06:20:19.596Z,10.13
2023-04-15T06:22:46.865Z,7.90
2023-04-15T06:25:14.114Z,9.40
2023-04-15T06:27:41.373Z,10.57
2023-04-15T06:30:09.214Z,8.38
2023-04-15T06:32:36.617Z,14.65
2023-04-15T06:35:04.071Z,10.32
2023-04-15T06:37:32.545Z,12.45
2023-04-15T06:39:59.683Z,10.23
2023-04-15T06:42:26.809Z,8.68
2023-04-15T06:44:53.917Z,8.77
2023-04-15T06:47:21.076Z,8.90
2023-04-15T06:49:48.223Z,7.72
2023-04-15T06:52:16.584Z,9.73
2023-04-15T06:54:43.796Z,8.27
2023-04-15T06:57:11.208Z,10.02
2023-04-15T06:59:38.352Z,9.52
2023-04-15T07:02:05.962Z,9.95
2023-04-15T07:04:33.612Z,10.35
2023-04-15T07:07:02.520Z,8.38
2023-04-15T07:09:29.727Z,8.73
2023-04-15T07:11:56.886Z,8.98
2023-04-15T07:14:24.113Z,10.07
2023-04-15T07:16:51.331Z,11.48
2023-04-15T07:19:18.578Z,11.68
2023-04-15T07:21:45.836Z,12.55
2023-04-15T07:24:16.779Z,10.05
2023-04-15T07:26:45.053Z,11.85
2023-04-15T07:29:12.207Z,12.15
2023-04-15T07:31:41.585Z,11.80
2023-04-15T07:34:08.807Z,13.27
2023-04-15T07:36:36.764Z,18.73
2023-04-15T07:39:04.355Z,11.70
2023-04-15T07:41:31.788Z,13.88
2023-04-15T07:43:59.013Z,14.75
2023-04-15T07:46:27.450Z,14.35
2023-04-15T07:48:54.724Z,17.85
2023-04-15T07:51:22.042Z,20.80
2023-04-15T07:53:50.325Z,22.83
2023-04-15T07:56:17.716Z,22.75
2023-04-15T07:58:44.906Z,22.13
2023-04-15T08:01:12.495Z,23.65
2023-04-15T08:03:40.071Z,24.25
2023-04-15T08:06:07.842Z,25.85
2023-04-15T08:08:35.092Z,26.38
2023-04-15T08:11:02.263Z,27.10
2023-04-15T08:13:29.486Z,27.48
2023-04-15T08:16:18.986Z,25.77
2023-04-15T08:18:48.634Z,29.77
2023-04-15T08:21:17.810Z,28.27
2023-04-15T08:23:47.285Z,29.55
2023-04-15T08:26:14.532Z,27.58
2023-04-15T08:28:43.938Z,32.13
2023-04-15T08:31:12.508Z,29.52
2023-04-15T08:33:39.679Z,30.25
2023-04-15T08:36:07.611Z,33.63
2023-04-15T08:38:35.000Z,28.38
2023-04-15T08:41:17.725Z,31.88
2023-04-15T08:43:54.641Z,33.85
2023-04-15T08:46:22.717Z,33.45
2023-04-15T08:48:50.817Z,33.25
2023-04-15T08:51:18.644Z,35.80
2023-04-15T08:53:47.466Z,34.47
2023-04-15T08:56:16.804Z,37.42
2023-04-15T08:58:45.248Z,39.20
2023-04-15T09:01:13.406Z,41.30
2023-04-15T09:03:41.667Z,40.15
2023-04-15T09:06:09.341Z,37.95
2023-04-15T09:08:36.502Z,41.35
2023-04-15T09:11:04.353Z,40.45
2023-04-15T09:13:31.993Z,45.33
2023-04-15T09:16:03.905Z,49.55
2023-04-15T09:18:34.206Z,43.70
2023-04-15T09:21:16.617Z,41.78
2023-04-15T09:23:58.401Z,48.53
2023-04-15T09:26:37.802Z,46.90
2023-04-15T09:29:15.180Z,47.75
2023-04-15T09:31:43.409Z,48.40
2023-04-15T09:34:10.745Z,43.38
2023-04-15T09:36:57.018Z,44.83
2023-04-15T09:39:24.175Z,51.33
2023-04-15T09:42:06.870Z,48.20
2023-04-15T09:44:34.233Z,42.90
2023-04-15T09:47:01.796Z,50.10
2023-04-15T09:49:29.000Z,47.67
2023-04-15T09:52:06.001Z,46.92
2023-04-15T09:54:38.731Z,51.95
2023-04-15T09:57:10.182Z,46.87
2023-04-15T09:59:37.739Z,52.25
2023-04-15T10:02:07.432Z,52.35
2023-04-15T10:04:39.800Z,53.80
2023-04-15T10:07:09.565Z,52.20
2023-04-15T10:09:39.158Z,48.40
2023-04-15T10:12:07.218Z,49.75
2023-04-15T10:14:38.472Z,53.03
2023-04-15T10:17:07.645Z,54.30
2023-04-15T10:19:37.999Z,48.30
2023-04-15T10:22:06.517Z,53.38
2023-04-15T10:24:34.203Z,53.55
2023-04-15T10:27:04.490Z,54.35
2023-04-15T10:29:31.679Z,56.13
2023-04-15T10:32:00.593Z,54.70
2023-04-15T10:34:30.668Z,52.00
2023-04-15T10:37:03.679Z,55.35
2023-04-15T10:39:37.342Z,56.17
2023-04-15T10:42:24.762Z,54.67
2023-04-15T10:44:57.044Z,52.03
2023-04-15T10:47:24.241Z,57.85
2023-04-15T10:49:57.976Z,61.75
2023-04-15T10:52:28.012Z,66.00
2023-04-15T10:55:16.047Z,64.03
2023-04-15T10:57:44.812Z,71.03
2023-04-15T11:00:17.357Z,68.00
2023-04-15T11:02:59.649Z,64.93
2023-04-15T11:05:41.964Z,68.73
2023-04-15T11:08:11.112Z,69.65
2023-04-15T11:10:38.148Z,72.10
2023-04-15T11:13:17.333Z,72.45
2023-04-15T11:15:46.398Z,77.75
2023-04-15T11:18:24.621Z,74.53
2023-04-15T11:20:54.907Z,77.63
2023-04-15T11:23:44.110Z,77.28
2023-04-15T11:26:15.314Z,77.95
2023-04-15T11:28:46.297Z,77.40
2023-04-15T11:31:19.878Z,77.72
2023-04-15T11:34:02.170Z,70.75
2023-04-15T11:36:32.010Z,74.45
2023-04-15T11:39:00.087Z,76.35
2023-04-15T11:41:27.484Z,79.45
2023-04-15T11:43:54.697Z,74.95
2023-04-15T11:46:28.554Z,77.40
2023-04-15T11:48:55.761Z,77.35
2023-04-15T11:51:23.001Z,73.85
2023-04-15T11:53:51.892Z,70.55
2023-04-15T11:56:22.504Z,71.65
2023-04-15T11:58:54.588Z,75.90
2023-04-15T12:01:33.484Z,70.27
2023-04-15T12:04:01.564Z,74.68
2023-04-15T12:06:37.298Z,75.28
2023-04-15T12:09:07.261Z,74.47
2023-04-15T12:11:49.520Z,71.35
2023-04-15T12:14:31.455Z,69.53
2023-04-15T12:17:04.849Z,74.60
2023-04-15T12:19:39.952Z,68.03
2023-04-15T12:22:15.484Z,64.57
2023-04-15T12:24:47.808Z,64.07
2023-04-15T12:27:17.145Z,58.70
2023-04-15T12:29:44.512Z,62.42
2023-04-15T12:32:14.592Z,60.08
2023-04-15T12:34:44.849Z,60.90
2023-04-15T12:37:15.970Z,57.78
2023-04-15T12:39:48.699Z,60.90
2023-04-15T12:42:17.959Z,57.33
2023-04-15T12:44:45.840Z,55.33
2023-04-15T12:47:13.387Z,57.03
2023-04-15T12:49:41.110Z,51.47
2023-04-15T12:52:08.525Z,55.10
2023-04-15T12:54:36.278Z,56.58
2023-04-15T12:57:06.799Z,49.92
2023-04-15T12:59:35.792Z,42.95
2023-04-15T13:02:04.210Z,50.80
2023-04-15T13:04:31.878Z,47.83
2023-04-15T13:06:59.334Z,48.72
2023-04-15T13:09:27.057Z,50.78
2023-04-15T13:11:54.529Z,47.05
2023-04-15T13:14:22.003Z,54.33
2023-04-15T13:16:49.226Z,44.35
2023-04-15T13:19:16.378Z,45.13
2023-04-15T13:21:43.612Z,44.97
2023-04-15T13:24:10.780Z,48.08
2023-04-15T13:26:38.185Z,46.58
2023-04-15T13:29:05.503Z,45.08
2023-04-15T13:31:32.733Z,44.05
2023-04-15T13:34:00.020Z,45.47
2023-04-15T13:36:27.471Z,44.60
2023-04-15T13:38:54.833Z,46.55
2023-04-15T13:41:22.047Z,39.22
2023-04-15T13:43:49.220Z,43.75
2023-04-15T13:46:16.655Z,43.70
2023-04-15T13:48:43.878Z,39.15
2023-04-15T13:51:11.011Z,39.90
2023-04-15T13:53:39.802Z,43.33
2023-04-15T13:56:08.867Z,40.15
2023-04-15T13:58:37.774Z,38.58
2023-04-15T14:01:07.029Z,38.13
2023-04-15T14:03:36.083Z,37.72
2023-04-15T14:06:07.910Z,36.90
2023-04-15T14:08:35.201Z,41.30
2023-04-15T14:11:02.549Z,32.45
2023-04-15T14:13:29.951Z,31.73
2023-04-15T14:15:57.306Z,32.15
2023-04-15T14:18:24.506Z,33.00
2023-04-15T14:20:51.808Z,32.35
2023-04-15T14:23:19.239Z,24.92
2023-04-15T14:25:48.324Z,28.42
2023-04-15T14:28:16.400Z,28.85
2023-04-15T14:30:43.794Z,28.83
2023-04-15T14:33:11.024Z,25.42
2023-04-15T14:35:39.115Z,24.48
2023-04-15T14:38:10.332Z,23.63
2023-04-15T14:40:37.525Z,25.50
2023-04-15T14:43:04.709Z,20.70
2023-04-15T14:45:31.892Z,24.80
2023-04-15T14:47:59.839Z,25.67
2023-04-15T14:50:27.104Z,24.50
2023-04-15T14:52:54.243Z,29.30
2023-04-15T14:55:21.361Z,25.05
2023-04-15T14:57:48.477Z,24.73
2023-04-15T15:00:16.331Z,25.13
2023-04-15T15:02:43.935Z,25.30
2023-04-15T15:05:12.201Z,24.70
2023-04-15T15:07:43.136Z,20.55
2023-04-15T15:10:10.530Z,21.13
2023-04-15T15:12:37.806Z,22.95
2023-04-15T15:15:15.480Z,20.33
2023-04-15T15:17:47.408Z,22.88
2023-04-15T15:20:14.610Z,19.83
2023-04-15T15:22:41.738Z,22.33
2023-04-15T15:25:08.932Z,17.98
2023-04-15T15:27:38.214Z,19.33
2023-04-15T15:30:06.791Z,21.80
2023-04-15T15:32:34.428Z,22.27
2023-04-15T15:35:02.169Z,20.70
2023-04-15T15:37:31.281Z,19.67
2023-04-15T15:39:58.810Z,20.45
2023-04-15T15:42:26.117Z,21.13
2023-04-15T15:44:53.277Z,21.70
2023-04-15T15:47:22.462Z,19.98
2023-04-15T15:49:49.761Z,24.33
2023-04-15T15:52:17.010Z,21.45
2023-04-15T15:54:44.481Z,20.17
2023-04-15T15:57:11.733Z,18.88
2023-04-15T15:59:41.204Z,20.95
2023-04-15T16:02:11.820Z,22.80
2023-04-15T16:04:39.794Z,21.55
2023-04-15T16:07:07.094Z,20.77
2023-04-15T16:09:34.497Z,25.13
2023-04-15T16:12:03.180Z,57.13
2023-04-15T16:14:30.418Z,30.15
2023-04-15T16:16:58.093Z,27.90
2023-04-15T16:19:25.423Z,28.05
2023-04-15T16:21:52.693Z,23.55
2023-04-15T16:24:19.926Z,20.90
2023-04-15T16:26:47.188Z,20.83
2023-04-15T16:29:14.372Z,20.73
2023-04-15T16:31:41.637Z,22.38
2023-04-15T16:34:09.229Z,23.75
2023-04-15T16:36:36.713Z,22.08
2023-04-15T16:39:04.675Z,24.10
2023-04-15T16:41:34.342Z,24.00
2023-04-15T16:44:03.173Z,19.33
2023-04-15T16:46:31.560Z,19.50
2023-04-15T16:48:58.763Z,22.20
2023-04-15T16:51:26.459Z,21.92
2023-04-15T16:53:53.585Z,17.48
2023-04-15T16:56:21.994Z,18.98
2023-04-15T16:58:49.210Z,23.83
2023-04-15T17:01:16.541Z,19.23
2023-04-15T17:03:44.002Z,20.33
2023-04-15T17:06:11.224Z,20.38
2023-04-15T17:08:38.559Z,19.40
2023-04-15T17:11:06.374Z,19.02
2023-04-15T17:13:33.549Z,21.83
2023-04-15T17:16:01.784Z,17.88
2023-04-15T17:18:29.120Z,19.80
2023-04-15T17:20:56.662Z,17.70
2023-04-15T17:23:25.950Z,21.23
2023-04-15T17:25:53.905Z,19.77
2023-04-15T17:28:21.071Z,19.88
2023-04-15T17:30:48.318Z,18.85
2023-04-15T17:33:55.546Z,20.85
2023-04-15T17:36:02.836Z,21.73
2023-04-15T17:38:30.250Z,18.75
2023-04-15T17:40:57.462Z,23.95
2023-04-15T17:43:24.632Z,19.50
2023-04-15T17:45:51.876Z,21.98
2023-04-15T17:48:19.054Z,19.10
2023-04-15T17:50:46.727Z,17.60
2023-04-15T17:53:13.942Z,20.20
2023-04-15T17:55:41.077Z,19.40
2023-04-15T17:58:08.341Z,20.15
2023-04-15T18:00:35.604Z,19.27
2023-04-15T18:03:03.117Z,17.98
2023-04-15T18:05:30.474Z,22.33
2023-04-15T18:07:57.650Z,16.67
2023-04-15T18:10:24.879Z,17.05
2023-04-15T18:12:52.077Z,19.83
2023-04-15T18:15:19.278Z,16.17
2023-04-15T18:17:47.718Z,16.98
2023-04-15T18:20:15.302Z,18.83
2023-04-15T18:22:43.543Z,18.70
2023-04-15T18:25:10.843Z,22.83
2023-04-15T18:27:39.384Z,22.02
2023-04-15T18:30:11.826Z,23.40
2023-04-15T18:32:39.456Z,20.67
2023-04-15T18:35:07.376Z,19.83
2023-04-15T18:37:34.743Z,20.85
2023-04-15T18:40:02.065Z,18.65
2023-04-15T18:42:29.301Z,18.65
2023-04-15T18:44:56.522Z,16.77
2023-04-15T18:47:27.115Z,19.23
2023-04-15T18:49:54.537Z,16.75
2023-04-15T18:52:21.791Z,20.80
2023-04-15T18:54:49.156Z,17.17
2023-04-15T18:57:23.059Z,20.15
2023-04-15T19:00:00.066Z,22.92
2023-04-15T19:02:27.355Z,21.80
2023-04-15T19:04:54.574Z,22.02
2023-04-15T19:07:23.029Z,20.33
2023-04-15T19:09:50.296Z,23.40
2023-04-15T19:12:17.475Z,23.80
2023-04-15T19:14:44.685Z,26.95
2023-04-15T19:17:11.852Z,26.75
2023-04-15T19:19:39.033Z,25.38
2023-04-15T19:22:06.618Z,28.55
2023-04-15T19:24:33.941Z,31.88
2023-04-15T19:27:01.728Z,36.47
2023-04-15T19:29:29.175Z,29.30
2023-04-15T19:31:56.408Z,31.25
2023-04-15T19:34:24.933Z,39.33
2023-04-15T19:36:52.185Z,33.50
2023-04-15T19:39:19.740Z,34.15
2023-04-15T19:41:47.232Z,33.47
2023-04-15T19:44:15.098Z,36.35
2023-04-15T19:46:44.740Z,34.97
2023-04-15T19:49:12.330Z,38.15
2023-04-15T19:51:41.536Z,41.47
2023-04-15T19:54:09.006Z,37.72
2023-04-15T19:56:36.319Z,40.35
2023-04-15T19:59:03.885Z,40.22
2023-04-15T20:01:31.920Z,37.75
2023-04-15T20:03:59.567Z,37.17
2023-04-15T20:06:27.635Z,43.83
2023-04-15T20:08:54.799Z,44.00
2023-04-15T20:11:22.143Z,39.60
2023-04-15T20:13:49.373Z,45.42
2023-04-15T20:16:16.680Z,43.00
2023-04-15T20:18:43.928Z,41.95
2023-04-15T20:21:11.169Z,41.00
2023-04-15T20:23:38.710Z,43.83
2023-04-15T20:26:09.017Z,47.55
2023-04-15T20:28:36.238Z,47.33
2023-04-15T20:31:03.629Z,46.72
2023-04-15T20:33:30.873Z,50.80
2023-04-15T20:35:58.688Z,50.15
2023-04-15T20:38:25.837Z,50.78
2023-04-15T20:40:53.022Z,50.42
2023-04-15T20:43:21.791Z,47.63
2023-04-15T20:45:50.550Z,45.83
2023-04-15T20:48:19.134Z,52.50
2023-04-15T20:50:46.478Z,50.08
2023-04-15T20:53:13.697Z,47.05
2023-04-15T20:55:41.022Z,51.05
2023-04-15T20:58:08.307Z,50.20
2023-04-15T21:00:35.630Z,45.78
2023-04-15T21:03:03.799Z,40.47
2023-04-15T21:05:31.090Z,43.97
2023-04-15T21:07:58.378Z,43.28
2023-04-15T21:10:25.852Z,40.22
2023-04-15T21:12:52.985Z,45.72
2023-04-15T21:15:20.522Z,49.13
2023-04-15T21:17:47.694Z,50.13
2023-04-15T21:20:15.170Z,46.38
2023-04-15T21:22:42.833Z,47.05
2023-04-15T21:25:10.323Z,53.38
2023-04-15T21:27:37.689Z,51.58
2023-04-15T21:30:05.688Z,56.15
2023-04-15T21:32:32.944Z,63.53
2023-04-15T21:35:00.155Z,58.15
2023-04-15T21:37:27.399Z,50.92
2023-04-15T21:39:54.612Z,56.05
2023-04-15T21:42:21.808Z,56.33
2023-04-15T21:44:48.972Z,57.40
2023-04-15T21:47:16.215Z,58.90
2023-04-15T21:49:43.529Z,54.67
2023-04-15T21:52:10.719Z,58.00
2023-04-15T21:54:38.108Z,60.45
2023-04-15T21:57:05.336Z,57.53
2023-04-15T21:59:32.521Z,53.53
2023-04-15T22:01:59.872Z,59.08
2023-04-15T22:04:27.314Z,59.25
2023-04-15T22:06:57.903Z,57.42
2023-04-15T22:09:25.118Z,57.72
2023-04-15T22:11:52.272Z,59.40
2023-04-15T22:14:19.444Z,59.60
2023-04-15T22:16:46.719Z,59.75
2023-04-15T22:19:13.926Z,56.63
2023-04-15T22:21:41.108Z,67.47
2023-04-15T22:24:32.602Z,59.28
2023-04-15T22:26:55.708Z,59.20
2023-04-15T22:29:22.875Z,60.22
2023-04-15T22:31:50.174Z,63.95
2023-04-15T22:34:21.354Z,65.97
2023-04-15T22:36:52.719Z,58.95
2023-04-15T22:39:20.453Z,59.35
2023-04-15T22:41:47.904Z,63.97
2023-04-15T22:44:15.092Z,59.88
2023-04-15T22:46:43.140Z,65.85
2023-04-15T22:49:10.761Z,60.88
2023-04-15T22:51:38.265Z,60.17
2023-04-15T22:54:05.555Z,59.42
2023-04-15T22:56:32.781Z,62.60
2023-04-15T22:58:59.969Z,62.72
2023-04-15T23:01:27.263Z,65.03
2023-04-15T23:03:55.925Z,65.13
2023-04-15T23:06:27.207Z,71.53
2023-04-15T23:08:54.549Z,66.43
2023-04-15T23:11:21.981Z,73.57
2023-04-15T23:13:50.547Z,69.90
2023-04-15T23:16:17.760Z,67.68
2023-04-15T23:18:45.013Z,76.35
2023-04-15T23:21:12.197Z,72.10
2023-04-15T23:23:39.553Z,68.90
2023-04-15T23:26:06.759Z,70.57
2023-04-15T23:28:33.928Z,73.18
2023-04-15T23:31:01.135Z,69.35
2023-04-15T23:33:28.304Z,70.40
2023-04-15T23:35:55.496Z,78.63
2023-04-15T23:38:22.629Z,75.65
2023-04-15T23:40:51.096Z,77.72
2023-04-15T23:43:18.263Z,73.45
2023-04-15T23:45:45.540Z,74.55
2023-04-15T23:48:12.726Z,74.63
2023-04-15T23:50:39.928Z,71.88
2023-04-15T23:53:07.129Z,75.32
2023-04-15T23:55:35.101Z,78.28
2023-04-15T23:58:02.360Z,77.47
